Miami, FL (33157)

6:39 AM EDT on August 28, 2016 (GMT -0400)
JA Richmond West | | Change Station

Elev 7 ft 25.61 °N, 80.43 °W | Updated 2 seconds ago

Light Rain
Light Rain
79.2 °F
Feels Like 83 °F
N
7.3
Wind Variable Wind from ENE
Gusts 7.3 mph

Today
High -- | Low -- °F
--% Chance of Precip.
Yesterday
High -- | Low -- °F
Precip. -- in
Pressure 29.88 in
Visibility 10.0 miles
Clouds Few 2400 ft
Mostly Cloudy 4800 ft
Mostly Cloudy 6500 ft
Heat Index 83 °F
Dew Point 74 °F
Humidity 84%
Rainfall 0.05 in
Snow Depth Not available.
7:00 AM 7:44 PM
Waning Crescent, 16% visible
METAR KTMB 280953Z AUTO 09011KT 10SM -RA FEW024 BKN048 BKN065 26/24 A2987 RMK AO2 PK WND 09027/0930 RAB26 SLP116 P0000 T02560244
Pressure 29.88 in
Visibility 10.0 miles
Clouds Few 2400 ft
Mostly Cloudy 4800 ft
Mostly Cloudy 6500 ft
Heat Index 83 °F
Dew Point 74 °F
Humidity 84%
Rainfall 0.05 in
Snow Depth Not available.
7:00 AM 7:44 PM
Waning Crescent, 16% visible
METAR KTMB 280953Z AUTO 09011KT 10SM -RA FEW024 BKN048 BKN065 26/24 A2987 RMK AO2 PK WND 09027/0930 RAB26 SLP116 P0000 T02560244

10-Day Weather Forecast

Almanac

Astronomy

Aug. 28, 2016 Rise Set
Actual Time
Civil Twilight
Nautical Twilight
Astronomical Twilight
Moon
Length of Visible Light
Length of Day
Tomorrow will be .
, % of the Moon is Illuminated

Today's Extremes

State Highs State Lows

Community

WunderPhotos

Upload Photos

1,935,541 photos uploaded!

WunderBlog® & News

Nearby

Air Quality

  Air Quality AQ Index Pollutant
Not available.

Snow Depth

Station Depth Elevation

Earthquake Activity

City Distance Mag. Time & Date
Minimum magnitude displayed is 2.5.

Coastal Water Temperatures

Place Temperature

Stations

Nearby Weather Stations

Station Location Temp. Windchill Dew Point Humidity Wind Precip. Elev Updated Type
                   

Watches & Warnings

There are currently no watches in effect.